Terminal Aerodrome Forecast
Issued by NWS

Home | Current Version | Previous Version | Text Only | Print | Product List | Glossary On
Versions: 1 2 3 4 5 6 7 8 9 10 11 12 13
000
FTUS45 KRIW 272300
TAFCOD
TAF
KCOD 272320Z 2800/2824 10007KT P6SM FEW120 BKN200
     FM280200 VRB05KT P6SM SCT200
     FM280600 21005KT P6SM SKC
     FM281800 04006KT P6SM FEW080
      AMD LTD TO CLD VIS AND WIND=

USA.gov is the U.S. government's official web portal to all federal, state and local government web resources and services.